Time;durP1;ratioP1;P1;durP2;ratioP2;P2;SDS_P1;SDS_P2;PMS_P1;PMS_P2;Temp;Humidity;BMP_temperature;BMP_pressure;BME280_temperature;BME280_humidity;BME280_pressure;Samples;Min_cycle;Max_cycle;Signal;HPM_P1;HPM_P2
2020/12/20 00:00:12;;;;;;;13.47;9.10;;;6.70;99.90;;;;;;4923877;29;20939;-72
2020/12/20 00:02:38;;;;;;;12.37;8.60;;;6.70;99.90;;;;;;4933987;29;20232;-72
2020/12/20 00:05:05;;;;;;;16.20;9.67;;;6.60;99.90;;;;;;4925485;29;20459;-71
2020/12/20 00:07:31;;;;;;;13.83;8.90;;;6.60;99.90;;;;;;4918184;28;20223;-70
2020/12/20 00:10:25;;;;;;;16.87;9.93;;;6.60;99.90;;;;;;4913126;29;20607;-71
2020/12/20 00:12:51;;;;;;;11.87;9.07;;;6.60;99.90;;;;;;4929807;29;20324;-71
2020/12/20 00:15:19;;;;;;;14.00;9.00;;;6.60;99.90;;;;;;4934101;29;20538;-71
2020/12/20 00:17:47;;;;;;;16.30;8.43;;;6.60;99.90;;;;;;4934052;29;20459;-70
2020/12/20 00:20:13;;;;;;;13.23;8.90;;;6.60;99.90;;;;;;4918831;29;21015;-71
2020/12/20 00:22:39;;;;;;;12.20;7.90;;;6.60;99.90;;;;;;4918775;28;20516;-71
2020/12/20 00:25:05;;;;;;;13.30;8.43;;;6.70;99.90;;;;;;4896386;29;20464;-71
2020/12/20 00:27:30;;;;;;;11.20;7.90;;;6.60;99.90;;;;;;4905636;29;20259;-71
2020/12/20 00:29:56;;;;;;;12.17;8.20;;;6.60;99.90;;;;;;4922435;29;20219;-70
2020/12/20 00:32:22;;;;;;;12.97;8.80;;;6.60;99.90;;;;;;4922118;29;20223;-71
2020/12/20 00:34:47;;;;;;;11.30;7.30;;;6.60;99.90;;;;;;4937007;28;20750;-71
2020/12/20 00:37:13;;;;;;;13.73;8.80;;;6.60;99.90;;;;;;4967694;28;20231;-72
2020/12/20 00:39:39;;;;;;;13.20;8.57;;;6.60;99.90;;;;;;4935197;28;20231;-71
2020/12/20 00:42:06;;;;;;;11.53;8.07;;;6.60;99.90;;;;;;4937925;28;20730;-71
2020/12/20 00:44:33;;;;;;;13.40;8.40;;;6.70;99.90;;;;;;4918515;29;20224;-70
2020/12/20 00:47:01;;;;;;;11.07;7.30;;;6.60;99.90;;;;;;4955715;28;20590;-71
2020/12/20 00:49:29;;;;;;;13.10;7.77;;;6.70;99.90;;;;;;4946240;28;20479;-71
2020/12/20 00:51:57;;;;;;;12.77;7.90;;;6.60;99.90;;;;;;4927556;28;20965;-71
2020/12/20 00:54:24;;;;;;;11.37;7.40;;;6.60;99.90;;;;;;4929754;28;20450;-71
2020/12/20 00:56:50;;;;;;;13.87;8.17;;;6.60;99.90;;;;;;4935298;28;20447;-70
2020/12/20 00:59:16;;;;;;;10.40;7.17;;;6.70;99.90;;;;;;4906329;29;20462;-71
2020/12/20 01:01:42;;;;;;;11.00;7.57;;;6.60;99.90;;;;;;4904803;28;20234;-71
2020/12/20 01:04:08;;;;;;;12.13;7.80;;;6.60;99.90;;;;;;4940163;28;20594;-71
2020/12/20 01:06:35;;;;;;;10.60;7.30;;;6.70;99.90;;;;;;4929716;29;20467;-71
2020/12/20 01:09:19;;;;;;;11.10;6.73;;;6.60;99.90;;;;;;4946267;28;20455;-71
2020/12/20 01:11:47;;;;;;;12.70;7.10;;;6.70;99.90;;;;;;4940432;28;20901;-71
2020/12/20 01:14:13;;;;;;;11.67;7.47;;;6.70;99.90;;;;;;4941268;28;20527;-70
2020/12/20 01:16:46;;;;;;;12.10;7.07;;;6.60;99.90;;;;;;4915961;29;20960;-70
2020/12/20 01:19:12;;;;;;;10.10;7.43;;;6.60;99.90;;;;;;4924974;28;21022;-71
2020/12/20 01:21:38;;;;;;;12.90;7.20;;;6.70;99.90;;;;;;4898956;28;20455;-73
2020/12/20 01:24:04;;;;;;;10.33;7.20;;;6.60;99.90;;;;;;4922983;28;20235;-71
2020/12/20 01:26:30;;;;;;;12.63;8.53;;;6.70;99.90;;;;;;4928714;29;20224;-71
2020/12/20 01:28:59;;;;;;;11.10;7.80;;;6.70;99.90;;;;;;4921550;29;20223;-71
2020/12/20 01:31:25;;;;;;;13.17;7.27;;;6.70;99.90;;;;;;4921113;28;20307;-70
2020/12/20 01:34:23;;;;;;;10.40;7.07;;;6.70;99.90;;;;;;4907060;29;20464;-72
2020/12/20 01:36:50;;;;;;;10.07;6.30;;;6.60;99.90;;;;;;4914775;29;20490;-71
2020/12/20 01:39:17;;;;;;;11.70;7.40;;;6.60;99.90;;;;;;4951908;28;20454;-70
2020/12/20 01:41:43;;;;;;;12.03;8.57;;;6.70;99.90;;;;;;4903893;28;20462;-71
2020/12/20 01:44:15;;;;;;;9.87;7.30;;;6.60;99.90;;;;;;4915962;29;20512;-71
2020/12/20 01:46:45;;;;;;;11.70;7.37;;;6.60;99.90;;;;;;4902665;29;20534;-71
2020/12/20 01:49:16;;;;;;;12.70;7.27;;;6.60;99.90;;;;;;4888062;29;20840;-72
2020/12/20 01:51:42;;;;;;;10.60;7.27;;;6.60;99.90;;;;;;4903989;28;20455;-71
2020/12/20 01:54:10;;;;;;;10.50;7.80;;;6.60;99.90;;;;;;4912587;28;20648;-71
2020/12/20 01:56:40;;;;;;;11.07;7.03;;;6.60;99.90;;;;;;4926867;28;20548;-70
2020/12/20 01:59:14;;;;;;;10.93;8.03;;;6.60;99.90;;;;;;4922038;29;20952;-71
2020/12/20 02:01:47;;;;;;;11.50;7.10;;;6.60;99.90;;;;;;4891376;28;20487;-71
2020/12/20 02:04:38;;;;;;;14.03;7.73;;;6.60;99.90;;;;;;4902469;29;20983;-71
2020/12/20 02:07:06;;;;;;;13.77;8.40;;;6.60;99.90;;;;;;4920026;29;20515;-71
2020/12/20 02:09:32;;;;;;;14.67;8.70;;;6.60;99.90;;;;;;4894577;29;21163;-71
2020/12/20 02:12:05;;;;;;;13.40;7.77;;;6.60;99.90;;;;;;4901295;28;20456;-73
2020/12/20 02:14:34;;;;;;;11.83;8.00;;;6.60;99.90;;;;;;4905362;29;20456;-71
2020/12/20 02:17:05;;;;;;;11.23;6.27;;;6.60;99.90;;;;;;4912539;29;20456;-71
2020/12/20 02:19:36;;;;;;;11.80;8.00;;;6.60;99.90;;;;;;4935762;29;20494;-71
2020/12/20 02:22:28;;;;;;;12.73;6.90;;;6.70;99.90;;;;;;4936188;28;20505;-71
2020/12/20 02:24:54;;;;;;;13.37;7.40;;;6.60;99.90;;;;;;4942658;28;20454;-70
2020/12/20 02:27:42;;;;;;;11.07;7.37;;;6.60;99.90;;;;;;4939234;29;20498;-70
2020/12/20 02:30:08;;;;;;;11.60;7.13;;;6.60;99.90;;;;;;4909799;29;20451;-71
2020/12/20 02:32:34;;;;;;;10.10;6.50;;;6.60;99.90;;;;;;4886494;29;20251;-71
2020/12/20 02:35:00;;;;;;;10.60;6.63;;;6.60;99.90;;;;;;4900925;28;20693;-71
2020/12/20 02:37:26;;;;;;;10.93;7.70;;;6.60;99.90;;;;;;4912710;28;20254;-71
2020/12/20 02:39:59;;;;;;;10.77;8.00;;;6.70;99.90;;;;;;4922193;28;20974;-71
2020/12/20 02:42:26;;;;;;;11.33;7.60;;;6.70;99.90;;;;;;4919135;29;20526;-70
2020/12/20 02:44:53;;;;;;;12.70;7.67;;;6.60;99.90;;;;;;4901274;29;20452;-71
2020/12/20 02:47:19;;;;;;;11.30;7.90;;;6.60;99.90;;;;;;4919462;29;20548;-71
2020/12/20 02:49:44;;;;;;;11.20;8.20;;;6.70;99.90;;;;;;4904289;28;20235;-71
2020/12/20 02:52:19;;;;;;;12.27;7.57;;;6.60;99.90;;;;;;4926029;28;20226;-71
2020/12/20 02:54:45;;;;;;;11.43;8.00;;;6.60;99.90;;;;;;4910113;29;20441;-71
2020/12/20 02:57:17;;;;;;;11.33;7.10;;;6.70;99.90;;;;;;4891131;29;20245;-70
2020/12/20 02:59:52;;;;;;;12.93;8.80;;;6.70;99.90;;;;;;4917626;28;20460;-71
2020/12/20 03:02:19;;;;;;;12.10;7.83;;;6.70;99.90;;;;;;4894085;28;20471;-71
2020/12/20 03:04:47;;;;;;;13.37;9.03;;;6.70;99.90;;;;;;4897966;29;20448;-71
2020/12/20 03:07:14;;;;;;;11.40;8.00;;;6.60;99.90;;;;;;4904292;28;20562;-70
2020/12/20 03:09:42;;;;;;;11.07;8.57;;;6.70;99.90;;;;;;4891904;29;20483;-74
2020/12/20 03:12:08;;;;;;;11.47;7.80;;;6.60;99.90;;;;;;4901724;28;20983;-71
2020/12/20 03:14:34;;;;;;;10.07;7.83;;;6.60;99.90;;;;;;4903082;29;20455;-70
2020/12/20 03:17:01;;;;;;;10.43;8.00;;;6.70;99.90;;;;;;4904567;29;20259;-71
2020/12/20 03:19:27;;;;;;;10.47;7.67;;;6.60;99.90;;;;;;4916117;29;20487;-72
2020/12/20 03:21:56;;;;;;;11.73;7.17;;;6.70;99.90;;;;;;4917079;28;20232;-73
2020/12/20 03:24:41;;;;;;;14.10;8.07;;;6.60;99.90;;;;;;4935887;28;20457;-71
2020/12/20 03:27:25;;;;;;;10.70;6.80;;;6.60;99.90;;;;;;4924283;29;20458;-71
2020/12/20 03:30:20;;;;;;;11.37;6.83;;;6.70;99.90;;;;;;4922681;29;20455;-71
2020/12/20 03:33:09;;;;;;;12.30;7.20;;;6.70;99.90;;;;;;4924508;28;20467;-70
2020/12/20 03:35:53;;;;;;;9.33;6.60;;;6.70;99.90;;;;;;4943346;28;20551;-71
2020/12/20 03:38:19;;;;;;;8.93;6.80;;;6.70;99.90;;;;;;4930552;28;20476;-71
2020/12/20 03:40:47;;;;;;;9.53;6.53;;;6.70;99.90;;;;;;4910451;29;20263;-71
2020/12/20 03:43:16;;;;;;;7.87;6.67;;;6.70;99.90;;;;;;4886233;28;20464;-72
2020/12/20 03:45:50;;;;;;;7.27;6.00;;;6.70;99.90;;;;;;4917397;29;20530;-72
2020/12/20 03:48:23;;;;;;;12.90;6.73;;;6.60;99.90;;;;;;4901525;29;20471;-71
2020/12/20 03:50:49;;;;;;;10.43;7.50;;;6.70;99.90;;;;;;4877493;29;20448;-70
2020/12/20 03:53:15;;;;;;;9.80;6.57;;;6.60;99.90;;;;;;4889386;29;20287;-71
2020/12/20 03:55:54;;;;;;;9.17;5.80;;;6.60;99.90;;;;;;4886135;29;20244;-71
2020/12/20 03:58:20;;;;;;;8.63;6.03;;;6.60;99.90;;;;;;4895236;29;20449;-71
2020/12/20 04:00:46;;;;;;;8.10;5.30;;;6.70;99.90;;;;;;4908310;29;20228;-70
2020/12/20 04:03:21;;;;;;;10.63;6.93;;;6.60;99.90;;;;;;4903225;29;20219;-71
2020/12/20 04:05:48;;;;;;;10.30;7.37;;;6.70;99.90;;;;;;4912732;29;20450;-70
2020/12/20 04:08:14;;;;;;;9.63;6.60;;;6.60;99.90;;;;;;4892807;29;20468;-71
2020/12/20 04:10:53;;;;;;;11.37;7.20;;;6.60;99.90;;;;;;4926264;29;21003;-71
2020/12/20 04:13:19;;;;;;;7.57;6.23;;;6.60;99.90;;;;;;4910346;29;20488;-71
2020/12/20 04:15:45;;;;;;;10.07;6.43;;;6.60;99.90;;;;;;4902064;29;24515;-72
2020/12/20 04:18:11;;;;;;;10.57;6.90;;;6.60;99.90;;;;;;4913481;29;20491;-71
2020/12/20 04:20:38;;;;;;;7.60;5.97;;;6.60;99.90;;;;;;4908340;29;20515;-72
2020/12/20 04:23:06;;;;;;;9.30;6.50;;;6.60;99.90;;;;;;4885690;29;20452;-73
2020/12/20 04:25:37;;;;;;;10.03;6.97;;;6.60;99.90;;;;;;4900970;29;20451;-72
2020/12/20 04:28:24;;;;;;;10.13;7.07;;;6.60;99.90;;;;;;4907076;29;20466;-73
2020/12/20 04:30:56;;;;;;;11.07;7.30;;;6.60;99.90;;;;;;4928084;29;20528;-72
2020/12/20 04:33:28;;;;;;;11.67;7.27;;;6.60;99.90;;;;;;4900179;29;20464;-73
2020/12/20 04:36:03;;;;;;;8.67;6.60;;;6.60;99.90;;;;;;4926691;29;20455;-73
2020/12/20 04:38:28;;;;;;;8.03;6.50;;;6.60;99.90;;;;;;4927484;29;20511;-72
2020/12/20 04:40:54;;;;;;;8.20;5.97;;;6.60;99.90;;;;;;4897240;29;20472;-71
2020/12/20 04:43:22;;;;;;;8.97;6.47;;;6.60;99.90;;;;;;4893731;29;20303;-73
2020/12/20 04:45:52;;;;;;;11.00;5.93;;;6.60;99.90;;;;;;4913332;29;20472;-72
2020/12/20 04:48:39;;;;;;;9.00;6.40;;;6.60;99.90;;;;;;4883568;28;20467;-71
2020/12/20 04:51:08;;;;;;;9.70;5.30;;;6.60;99.90;;;;;;4915657;29;20494;-72
2020/12/20 04:53:45;;;;;;;10.97;6.27;;;6.60;99.90;;;;;;4933368;29;20960;-72
2020/12/20 04:56:19;;;;;;;7.00;5.67;;;6.60;99.90;;;;;;4919252;29;20220;-71
2020/12/20 04:58:51;;;;;;;8.77;5.33;;;6.60;99.90;;;;;;4919173;29;20463;-71
2020/12/20 05:01:20;;;;;;;10.60;6.40;;;6.60;99.90;;;;;;4903722;28;20558;-71
2020/12/20 05:03:47;;;;;;;9.07;6.23;;;6.50;99.90;;;;;;4902930;28;20470;-71
2020/12/20 05:06:15;;;;;;;10.00;6.40;;;6.50;99.90;;;;;;4903414;29;20462;-71
2020/12/20 05:08:43;;;;;;;7.93;5.53;;;6.50;99.90;;;;;;4903294;29;20470;-71
2020/12/20 05:11:31;;;;;;;8.70;6.57;;;6.50;99.90;;;;;;4906703;29;20459;-72
2020/12/20 05:13:57;;;;;;;7.60;5.63;;;6.60;99.90;;;;;;4922182;29;20462;-71
2020/12/20 05:16:32;;;;;;;11.10;6.40;;;6.50;99.90;;;;;;4922098;29;20464;-71
2020/12/20 05:19:07;;;;;;;10.63;7.37;;;6.60;99.90;;;;;;4922488;29;20463;-72
2020/12/20 05:21:35;;;;;;;10.37;6.60;;;6.50;99.90;;;;;;4921432;29;20471;-71
2020/12/20 05:24:26;;;;;;;8.87;6.10;;;6.50;99.90;;;;;;4906290;29;20514;-72
2020/12/20 05:26:53;;;;;;;8.73;6.03;;;6.50;99.90;;;;;;4922010;29;20456;-71
2020/12/20 05:29:26;;;;;;;11.67;6.80;;;6.50;99.90;;;;;;4921837;29;20456;-73
2020/12/20 05:31:53;;;;;;;10.20;7.20;;;6.50;99.90;;;;;;4921821;28;20452;-71
2020/12/20 05:34:39;;;;;;;10.80;6.67;;;6.50;99.90;;;;;;4904784;29;20456;-72
2020/12/20 05:37:09;;;;;;;9.67;6.70;;;6.50;99.90;;;;;;4904797;29;20476;-71
2020/12/20 05:39:49;;;;;;;11.87;5.90;;;6.40;99.90;;;;;;4908600;29;20224;-71
2020/12/20 05:42:30;;;;;;;9.80;6.13;;;6.50;99.90;;;;;;4907998;29;20471;-72
2020/12/20 05:45:11;;;;;;;9.00;6.03;;;6.50;99.90;;;;;;4906268;29;20487;-71
2020/12/20 05:47:49;;;;;;;10.00;6.30;;;6.40;99.90;;;;;;4890590;29;20523;-71
2020/12/20 05:50:14;;;;;;;11.07;6.67;;;6.40;99.90;;;;;;4919461;29;20931;-72
2020/12/20 05:52:41;;;;;;;13.03;7.03;;;6.50;99.90;;;;;;4920750;29;20278;-71
2020/12/20 05:58:34;;;;;;;10.60;6.40;;;6.40;99.90;;;;;;4936072;28;20247;-72
2020/12/20 06:01:01;;;;;;;12.80;7.70;;;6.40;99.90;;;;;;4930109;29;20567;-71
2020/12/20 06:03:27;;;;;;;9.40;6.60;;;6.40;99.90;;;;;;4917208;29;20484;-72
2020/12/20 06:05:53;;;;;;;10.20;6.80;;;6.40;99.90;;;;;;4921160;29;20463;-71
2020/12/20 06:08:20;;;;;;;10.47;7.00;;;6.40;99.90;;;;;;4921631;29;20991;-72
2020/12/20 06:10:53;;;;;;;8.43;6.53;;;6.40;99.90;;;;;;4916855;29;20461;-72
2020/12/20 06:13:24;;;;;;;9.50;6.03;;;6.40;99.90;;;;;;4906288;29;20479;-72
2020/12/20 06:15:57;;;;;;;11.00;6.73;;;6.40;99.90;;;;;;4936253;29;20853;-72
2020/12/20 06:18:28;;;;;;;10.93;6.93;;;6.50;99.90;;;;;;4921061;29;20460;-71
2020/12/20 06:21:02;;;;;;;9.83;7.17;;;6.50;99.90;;;;;;4904640;29;20479;-72
2020/12/20 06:23:29;;;;;;;10.90;6.77;;;6.50;99.90;;;;;;4919895;28;20874;-72
2020/12/20 06:25:56;;;;;;;11.30;7.53;;;6.50;99.90;;;;;;4920787;29;20455;-71
2020/12/20 06:28:24;;;;;;;11.27;6.03;;;6.50;99.90;;;;;;4920272;28;20463;-72
2020/12/20 06:30:51;;;;;;;7.70;6.17;;;6.50;99.90;;;;;;4920627;29;20499;-71
2020/12/20 06:33:42;;;;;;;12.93;7.50;;;6.50;99.90;;;;;;4904491;29;20980;-72
2020/12/20 06:36:11;;;;;;;15.40;6.60;;;6.50;99.90;;;;;;4925135;29;20455;-72
2020/12/20 06:38:37;;;;;;;9.37;6.70;;;6.50;99.90;;;;;;4904891;29;20559;-72
2020/12/20 06:41:03;;;;;;;11.07;7.27;;;6.50;99.90;;;;;;4901286;29;20567;-72
2020/12/20 06:43:37;;;;;;;9.20;5.90;;;6.50;99.90;;;;;;4919541;28;20220;-72
2020/12/20 06:46:05;;;;;;;11.90;6.77;;;6.40;99.90;;;;;;4936525;29;20460;-72
2020/12/20 06:48:31;;;;;;;10.63;6.90;;;6.40;99.90;;;;;;4934060;28;20534;-72
2020/12/20 06:50:57;;;;;;;10.40;6.23;;;6.40;99.90;;;;;;4904676;29;20857;-71
2020/12/20 06:53:46;;;;;;;9.90;6.53;;;6.40;99.90;;;;;;4935831;29;20561;-72
2020/12/20 06:56:21;;;;;;;15.00;7.03;;;6.40;99.90;;;;;;4920475;29;20224;-72
2020/12/20 06:58:52;;;;;;;14.17;8.43;;;6.50;99.90;;;;;;4916661;29;20456;-71
2020/12/20 07:01:37;;;;;;;13.93;7.47;;;6.50;99.90;;;;;;4902618;29;20494;-72
2020/12/20 07:04:15;;;;;;;9.90;7.17;;;6.50;99.90;;;;;;4918654;29;20488;-73
2020/12/20 07:07:06;;;;;;;14.00;7.23;;;6.50;99.90;;;;;;4916596;29;20480;-73
2020/12/20 07:09:33;;;;;;;13.30;7.00;;;6.50;99.90;;;;;;4915460;29;20456;-72
2020/12/20 07:12:50;;;;;;;11.17;7.57;;;6.50;99.90;;;;;;4901059;29;20472;-72
2020/12/20 07:15:53;;;;;;;12.50;7.37;;;6.50;99.90;;;;;;4936159;29;20455;-72
2020/12/20 07:18:49;;;;;;;12.80;8.23;;;6.50;99.90;;;;;;4916301;29;20505;-72
2020/12/20 07:21:18;;;;;;;10.97;7.60;;;6.50;99.90;;;;;;4952326;28;20471;-72
2020/12/20 07:23:49;;;;;;;15.20;9.50;;;6.50;99.90;;;;;;4934832;28;20463;-72
2020/12/20 07:26:15;;;;;;;17.13;9.20;;;6.50;99.90;;;;;;4915303;29;20463;-72
2020/12/20 07:28:41;;;;;;;17.27;9.20;;;6.50;99.90;;;;;;4918751;29;20459;-71
2020/12/20 07:31:20;;;;;;;15.97;9.03;;;6.50;99.90;;;;;;4919218;29;20456;-71
2020/12/20 07:33:47;;;;;;;17.70;9.63;;;6.50;99.90;;;;;;4919116;28;20459;-72
2020/12/20 07:36:14;;;;;;;13.00;8.97;;;6.50;99.90;;;;;;4919180;29;20498;-71
2020/12/20 07:38:39;;;;;;;16.77;10.00;;;6.50;99.90;;;;;;4918494;29;20553;-72
2020/12/20 07:41:06;;;;;;;17.63;8.70;;;6.50;99.90;;;;;;4934777;29;21003;-72
2020/12/20 07:43:32;;;;;;;12.60;8.97;;;6.50;99.90;;;;;;4934601;29;20222;-71
2020/12/20 07:45:59;;;;;;;17.40;9.47;;;6.50;99.90;;;;;;4903786;29;20515;-71
2020/12/20 07:48:26;;;;;;;14.63;9.37;;;6.50;99.90;;;;;;4934065;29;20638;-71
2020/12/20 07:50:52;;;;;;;15.33;9.13;;;6.50;99.90;;;;;;4919166;29;20467;-72
2020/12/20 07:53:18;;;;;;;12.57;8.57;;;6.50;99.90;;;;;;4918241;28;20467;-72
2020/12/20 07:55:50;;;;;;;11.97;7.13;;;6.50;99.90;;;;;;4918482;28;20464;-72
2020/12/20 07:58:18;;;;;;;16.20;10.13;;;6.50;99.90;;;;;;4919100;29;20483;-72
2020/12/20 08:00:45;;;;;;;18.53;8.93;;;6.50;99.90;;;;;;4917315;29;20547;-71
2020/12/20 08:03:12;;;;;;;16.67;10.40;;;6.50;99.90;;;;;;4951501;28;20471;-71
2020/12/20 08:05:38;;;;;;;19.30;10.27;;;6.50;99.90;;;;;;4918006;29;20988;-72
2020/12/20 08:08:03;;;;;;;13.50;8.90;;;6.50;99.90;;;;;;4918965;29;20539;-71
2020/12/20 08:10:29;;;;;;;12.87;7.70;;;6.50;99.90;;;;;;4934410;29;20642;-72
2020/12/20 08:12:55;;;;;;;16.30;8.30;;;6.50;99.90;;;;;;4915362;29;20252;-71
2020/12/20 08:15:20;;;;;;;12.07;8.13;;;6.40;99.90;;;;;;4932241;29;20225;-72
2020/12/20 08:17:46;;;;;;;13.33;7.27;;;6.40;99.90;;;;;;4899249;29;20232;-71
2020/12/20 08:20:13;;;;;;;13.33;8.43;;;6.40;99.90;;;;;;4900495;29;20215;-71
2020/12/20 08:22:39;;;;;;;16.10;7.70;;;6.50;99.90;;;;;;4899317;29;20538;-72
2020/12/20 08:25:11;;;;;;;12.17;8.40;;;6.50;99.90;;;;;;4905759;29;20451;-71
2020/12/20 08:27:40;;;;;;;9.57;7.03;;;6.50;99.90;;;;;;4918313;28;20465;-71
2020/12/20 08:30:08;;;;;;;17.57;8.03;;;6.50;99.90;;;;;;4934315;29;20550;-72
2020/12/20 08:32:40;;;;;;;11.83;7.17;;;6.50;99.90;;;;;;4934171;28;20483;-71
2020/12/20 08:35:11;;;;;;;9.50;7.30;;;6.50;99.90;;;;;;4916331;29;21278;-71
2020/12/20 08:37:37;;;;;;;11.87;7.50;;;6.50;99.90;;;;;;4915727;29;20469;-71
2020/12/20 08:40:17;;;;;;;14.47;8.73;;;6.50;99.90;;;;;;4915814;29;20467;-72
2020/12/20 08:42:44;;;;;;;14.17;8.20;;;6.50;99.90;;;;;;4933653;29;20474;-72
2020/12/20 08:45:23;;;;;;;12.47;7.47;;;6.50;99.90;;;;;;4920110;29;20823;-72
2020/12/20 08:47:49;;;;;;;13.70;7.87;;;6.40;99.90;;;;;;4922411;29;20486;-71
2020/12/20 08:50:23;;;;;;;12.90;7.60;;;6.50;99.90;;;;;;4921925;29;20529;-72
2020/12/20 08:53:04;;;;;;;13.13;7.93;;;6.50;99.90;;;;;;4921856;28;20456;-72
2020/12/20 08:55:30;;;;;;;11.63;7.57;;;6.50;99.90;;;;;;4894680;29;20462;-72
2020/12/20 08:58:09;;;;;;;13.37;8.03;;;6.50;99.90;;;;;;4887034;29;20459;-71
2020/12/20 09:00:35;;;;;;;12.13;8.17;;;6.50;99.90;;;;;;4921328;28;20459;-72
2020/12/20 09:03:03;;;;;;;16.77;7.90;;;6.50;99.90;;;;;;4905861;29;20975;-72
2020/12/20 09:05:30;;;;;;;10.57;6.60;;;6.40;99.90;;;;;;4890172;28;20539;-72
2020/12/20 09:07:57;;;;;;;12.80;7.80;;;6.50;99.90;;;;;;4887261;29;20464;-71
2020/12/20 09:10:31;;;;;;;13.87;7.90;;;6.50;99.90;;;;;;4916731;29;20464;-71
2020/12/20 09:12:58;;;;;;;12.33;7.93;;;6.40;99.90;;;;;;4930232;29;20561;-71
2020/12/20 09:15:29;;;;;;;13.33;7.07;;;6.50;99.90;;;;;;4932832;28;20479;-71
2020/12/20 09:17:57;;;;;;;13.93;8.40;;;6.50;99.90;;;;;;4920562;29;20455;-72
2020/12/20 09:20:24;;;;;;;15.97;8.53;;;6.50;99.90;;;;;;4931102;29;20848;-71
2020/12/20 09:22:54;;;;;;;10.87;6.20;;;6.50;99.90;;;;;;4901930;29;20452;-72
2020/12/20 09:25:39;;;;;;;11.90;6.70;;;6.50;99.90;;;;;;4926298;29;20468;-73
2020/12/20 09:28:13;;;;;;;10.70;7.10;;;6.50;99.90;;;;;;4927665;29;20567;-71
2020/12/20 09:30:52;;;;;;;9.87;6.67;;;6.50;99.90;;;;;;4926660;29;20456;-72
2020/12/20 09:33:30;;;;;;;16.20;8.33;;;6.50;99.90;;;;;;4930624;29;20899;-71
2020/12/20 09:36:20;;;;;;;11.80;7.07;;;6.50;99.90;;;;;;4921406;29;20965;-71
2020/12/20 09:38:48;;;;;;;15.47;8.03;;;6.60;99.90;;;;;;4910303;29;25756;-72
2020/12/20 09:41:25;;;;;;;13.00;8.60;;;6.50;99.90;;;;;;4921162;29;20570;-72
2020/12/20 09:43:53;;;;;;;13.40;8.20;;;6.50;99.90;;;;;;4937243;29;20455;-71
2020/12/20 09:46:22;;;;;;;11.27;7.30;;;6.50;99.90;;;;;;4906231;29;20451;-71
2020/12/20 09:48:49;;;;;;;13.77;8.33;;;6.50;99.90;;;;;;4933432;29;20811;-72
2020/12/20 09:51:16;;;;;;;13.17;8.20;;;6.60;99.90;;;;;;4893122;29;20473;-72
2020/12/20 09:53:41;;;;;;;12.80;7.77;;;6.50;99.90;;;;;;4936636;29;20467;-72
2020/12/20 09:56:07;;;;;;;9.30;6.27;;;6.60;99.90;;;;;;4904630;29;20451;-72
2020/12/20 09:58:33;;;;;;;12.70;7.10;;;6.60;99.90;;;;;;4920834;29;20637;-72
2020/12/20 10:00:58;;;;;;;15.13;8.43;;;6.60;99.90;;;;;;4905185;29;20236;-72
2020/12/20 10:03:25;;;;;;;11.90;8.33;;;6.60;99.90;;;;;;4921137;29;20227;-72
2020/12/20 10:05:54;;;;;;;15.63;7.70;;;6.60;99.90;;;;;;4905109;29;20228;-71
2020/12/20 10:08:20;;;;;;;14.73;8.03;;;6.60;99.90;;;;;;4921645;29;20447;-74
2020/12/20 10:10:45;;;;;;;13.87;8.30;;;6.60;99.90;;;;;;4904544;29;21032;-74
2020/12/20 10:13:11;;;;;;;13.80;8.23;;;6.60;99.90;;;;;;4900948;29;20220;-74
2020/12/20 10:15:36;;;;;;;13.10;8.83;;;6.70;99.90;;;;;;4904159;28;20235;-72
2020/12/20 10:18:02;;;;;;;18.77;10.20;;;6.70;99.90;;;;;;4919774;29;20336;-72
2020/12/20 10:20:32;;;;;;;12.57;9.20;;;6.60;99.90;;;;;;4919769;28;20231;-72
2020/12/20 10:22:58;;;;;;;16.53;9.00;;;6.70;99.90;;;;;;4904424;29;20231;-71
2020/12/20 10:25:24;;;;;;;16.47;10.30;;;6.60;99.90;;;;;;4920882;29;20480;-71
2020/12/20 10:27:52;;;;;;;14.20;8.20;;;6.70;99.90;;;;;;4919917;29;20991;-72
2020/12/20 10:30:17;;;;;;;14.03;9.20;;;6.60;99.90;;;;;;4920734;29;20228;-71
2020/12/20 10:32:44;;;;;;;13.73;8.73;;;6.70;99.90;;;;;;4903927;29;20980;-72
2020/12/20 10:35:10;;;;;;;17.10;10.20;;;6.70;99.90;;;;;;4912787;29;20224;-72
2020/12/20 10:37:35;;;;;;;19.50;10.67;;;6.70;99.90;;;;;;4920248;29;20515;-72
2020/12/20 10:40:03;;;;;;;18.27;10.10;;;6.70;99.90;;;;;;4919292;29;20294;-71
2020/12/20 10:42:28;;;;;;;21.20;11.10;;;6.70;99.90;;;;;;4935272;29;20244;-71
2020/12/20 10:44:54;;;;;;;18.93;10.17;;;6.70;99.90;;;;;;4935797;29;20538;-72
2020/12/20 10:47:22;;;;;;;17.70;9.90;;;6.70;99.90;;;;;;4904987;29;20246;-71
2020/12/20 10:49:48;;;;;;;13.87;7.93;;;6.70;99.90;;;;;;4919509;28;20227;-72
2020/12/20 10:52:14;;;;;;;18.83;8.83;;;6.80;99.90;;;;;;4916505;29;20472;-72
2020/12/20 10:54:40;;;;;;;16.23;9.93;;;6.70;99.90;;;;;;4900824;29;20232;-72
2020/12/20 10:57:05;;;;;;;13.10;9.67;;;6.80;99.90;;;;;;4901957;28;20314;-72
2020/12/20 10:59:32;;;;;;;15.17;9.90;;;6.80;99.90;;;;;;4888547;28;20740;-72
2020/12/20 11:01:58;;;;;;;14.30;8.77;;;6.80;99.90;;;;;;4919711;29;20263;-72
2020/12/20 11:04:25;;;;;;;14.77;9.50;;;6.80;99.90;;;;;;4920391;29;20539;-71
2020/12/20 11:06:56;;;;;;;17.23;9.40;;;6.80;99.90;;;;;;4916924;28;20523;-71
2020/12/20 11:09:26;;;;;;;19.27;9.77;;;6.80;99.90;;;;;;4919923;29;20995;-72
2020/12/20 11:11:52;;;;;;;16.07;9.20;;;6.90;99.90;;;;;;4934748;28;20589;-72
2020/12/20 11:14:19;;;;;;;16.40;9.97;;;6.90;99.90;;;;;;4919772;29;20825;-72
2020/12/20 11:16:45;;;;;;;12.77;8.70;;;6.90;99.90;;;;;;4951772;28;20812;-72
2020/12/20 11:19:13;;;;;;;17.00;11.10;;;6.90;99.90;;;;;;4919601;29;20527;-72
2020/12/20 11:21:39;;;;;;;21.40;11.13;;;6.90;99.90;;;;;;4899798;29;20248;-72
2020/12/20 11:24:06;;;;;;;15.50;10.50;;;6.90;99.90;;;;;;4900960;29;20535;-72
2020/12/20 11:26:35;;;;;;;14.90;10.30;;;6.90;99.90;;;;;;4902883;28;20697;-72
2020/12/20 11:29:00;;;;;;;16.20;9.20;;;6.90;99.90;;;;;;4919402;29;20840;-72
2020/12/20 11:31:27;;;;;;;14.70;8.87;;;7.00;99.90;;;;;;4919805;28;20464;-73
2020/12/20 11:33:53;;;;;;;16.80;9.77;;;7.00;99.90;;;;;;4925590;29;20228;-72
2020/12/20 11:36:22;;;;;;;14.60;8.90;;;7.00;99.90;;;;;;4921268;28;20539;-71
2020/12/20 11:38:50;;;;;;;16.23;9.00;;;7.00;99.90;;;;;;4921977;29;20456;-72
2020/12/20 11:41:20;;;;;;;12.07;8.17;;;7.00;99.90;;;;;;4917405;29;20484;-72
2020/12/20 11:43:45;;;;;;;15.43;9.30;;;7.00;99.90;;;;;;4900837;29;20531;-72
2020/12/20 11:46:12;;;;;;;18.10;10.50;;;7.00;99.90;;;;;;4900740;29;20445;-72
2020/12/20 11:48:37;;;;;;;19.57;10.10;;;7.00;99.90;;;;;;4902368;29;20231;-72
2020/12/20 11:51:04;;;;;;;15.90;10.37;;;7.00;99.90;;;;;;4919348;29;20463;-72
2020/12/20 11:53:29;;;;;;;14.30;9.27;;;7.10;99.90;;;;;;4902593;28;20236;-72
2020/12/20 11:55:56;;;;;;;15.17;10.47;;;7.10;99.90;;;;;;4934696;29;20464;-72
2020/12/20 11:58:21;;;;;;;14.97;9.63;;;7.10;99.90;;;;;;4903528;29;20476;-72
2020/12/20 12:00:48;;;;;;;17.03;9.40;;;7.10;99.90;;;;;;4918672;28;20219;-72
2020/12/20 12:03:14;;;;;;;12.03;8.73;;;7.10;99.90;;;;;;4915144;29;20710;-72
2020/12/20 12:05:41;;;;;;;18.07;9.53;;;7.10;99.90;;;;;;4930245;29;20462;-72
2020/12/20 12:08:08;;;;;;;22.40;12.10;;;7.20;99.90;;;;;;4941961;28;20451;-73
2020/12/20 12:10:35;;;;;;;20.23;10.00;;;7.20;99.90;;;;;;4908717;29;20531;-72
2020/12/20 12:13:02;;;;;;;12.93;9.20;;;7.20;99.90;;;;;;4911329;29;20984;-73
2020/12/20 12:15:28;;;;;;;20.17;10.47;;;7.20;99.90;;;;;;4895362;29;20451;-73
2020/12/20 12:17:54;;;;;;;17.27;9.73;;;7.20;99.90;;;;;;4892970;29;20459;-72
2020/12/20 12:24:14;;;;;;;20.67;15.60;;;7.20;99.90;;;;;;4947568;28;20474;-72
2020/12/20 12:26:39;;;;;;;30.00;19.87;;;7.20;99.90;;;;;;4915009;29;20459;-72
2020/12/20 12:29:05;;;;;;;30.63;19.97;;;7.20;99.90;;;;;;4884358;29;20467;-71
2020/12/20 12:31:31;;;;;;;27.17;18.10;;;7.30;99.90;;;;;;4905029;29;20220;-71
2020/12/20 12:33:57;;;;;;;27.33;16.10;;;7.30;99.90;;;;;;4913336;29;20609;-71
2020/12/20 12:36:29;;;;;;;25.97;15.33;;;7.30;99.90;;;;;;4915727;29;20262;-72
2020/12/20 12:38:56;;;;;;;20.90;13.53;;;7.30;99.90;;;;;;4914944;29;20554;-72
2020/12/20 12:41:31;;;;;;;17.03;11.00;;;7.30;99.90;;;;;;4898866;29;20476;-72
2020/12/20 12:43:57;;;;;;;23.70;11.83;;;7.30;99.90;;;;;;4914730;29;20463;-71
2020/12/20 12:46:24;;;;;;;25.40;14.63;;;7.30;99.90;;;;;;4931582;29;20467;-71
2020/12/20 12:48:50;;;;;;;21.40;15.23;;;7.40;99.90;;;;;;4902370;28;20464;-72
2020/12/20 12:51:22;;;;;;;31.27;17.57;;;7.40;99.90;;;;;;4888287;29;20463;-72
2020/12/20 12:53:48;;;;;;;23.60;14.23;;;7.40;99.90;;;;;;4916091;29;20306;-72
2020/12/20 12:56:15;;;;;;;20.77;11.40;;;7.40;99.90;;;;;;4896213;29;20876;-72
2020/12/20 12:58:41;;;;;;;18.93;11.40;;;7.40;99.90;;;;;;4930264;29;20701;-72
2020/12/20 13:01:18;;;;;;;18.67;11.10;;;7.40;99.90;;;;;;4901252;29;20471;-72
2020/12/20 13:03:44;;;;;;;21.93;10.77;;;7.40;99.90;;;;;;4891494;28;20467;-72
2020/12/20 13:06:17;;;;;;;19.07;12.53;;;7.40;99.90;;;;;;4925992;28;20454;-72
2020/12/20 13:08:42;;;;;;;20.73;11.83;;;7.40;99.90;;;;;;4956869;28;20479;-71